Time;durP1;ratioP1;P1;durP2;ratioP2;P2;SDS_P1;SDS_P2;PMS_P1;PMS_P2;Temp;Humidity;BMP_temperature;BMP_pressure;BME280_temperature;BME280_humidity;BME280_pressure;Samples;Min_cycle;Max_cycle;Signal;HPM_P1;HPM_P2
2022/08/31 00:05:20;;;;;;;;;;;;;;;21.89;54.48;101827.19;5060040;28;3325;-65
2022/08/31 00:07:46;;;;;;;;;;;;;;;21.89;54.67;101815.66;5058381;28;2988;-66
2022/08/31 00:10:13;;;;;;;;;;;;;;;21.91;54.48;101815.78;5061385;28;1657;-66
2022/08/31 00:12:43;;;;;;;;;;;;;;;21.85;54.38;101811.81;5059034;28;3862;-66
2022/08/31 00:15:10;;;;;;;;;;;;;;;21.83;54.71;101820.34;5059771;28;2834;-67
2022/08/31 00:17:36;;;;;;;;;;;;;;;21.88;54.46;101822.09;5059088;28;3302;-67
2022/08/31 00:20:10;;;;;;;;;;;;;;;21.83;54.35;101820.34;5059406;28;2993;-66
2022/08/31 00:22:56;;;;;;;;;;;;;;;21.82;54.58;101825.34;5058568;28;2900;-67
2022/08/31 00:25:22;;;;;;;;;;;;;;;21.74;54.58;101822.03;5060766;28;2389;-66
2022/08/31 00:27:49;;;;;;;;;;;;;;;21.82;54.67;101815.97;5058184;28;3015;-66
2022/08/31 00:30:15;;;;;;;;;;;;;;;21.81;54.45;101814.47;5058973;28;2798;-66
2022/08/31 00:32:42;;;;;;;;;;;;;;;21.78;54.34;101821.50;5054897;28;3171;-66
2022/08/31 00:35:08;;;;;;;;;;;;;;;21.74;54.51;101819.91;5052890;28;2905;-66
2022/08/31 00:37:34;;;;;;;;;;;;;;;21.77;54.58;101814.25;5059712;28;3092;-67
2022/08/31 00:40:01;;;;;;;;;;;;;;;21.80;54.59;101804.31;5059894;28;3301;-66
2022/08/31 00:42:27;;;;;;;;;;;;;;;21.81;54.65;101811.59;5052998;28;2787;-66
2022/08/31 00:44:54;;;;;;;;;;;;;;;21.75;54.73;101815.63;5053076;28;2830;-66
2022/08/31 00:47:20;;;;;;;;;;;;;;;21.79;54.34;101817.25;5058860;28;3231;-66
2022/08/31 00:49:49;;;;;;;;;;;;;;;21.77;54.61;101822.91;5059156;28;3014;-65
2022/08/31 00:52:16;;;;;;;;;;;;;;;21.72;54.66;101828.44;5057238;28;2877;-66
2022/08/31 00:54:44;;;;;;;;;;;;;;;21.74;54.37;101827.81;5055476;28;2968;-65
2022/08/31 00:57:11;;;;;;;;;;;;;;;21.75;54.40;101827.16;5063967;28;2924;-66
2022/08/31 00:59:37;;;;;;;;;;;;;;;21.75;54.11;101821.38;5059770;28;2609;-66
2022/08/31 01:02:05;;;;;;;;;;;;;;;21.75;54.27;101826.41;5056848;28;3019;-66
2022/08/31 01:04:31;;;;;;;;;;;;;;;21.71;54.27;101838.44;5060054;28;3127;-65
2022/08/31 01:06:58;;;;;;;;;;;;;;;21.73;54.44;101824.16;5059681;28;2842;-66
2022/08/31 01:09:25;;;;;;;;;;;;;;;21.80;54.03;101836.03;5063165;28;2882;-66
2022/08/31 01:11:51;;;;;;;;;;;;;;;21.68;54.50;101839.72;5059375;28;3000;-66
2022/08/31 01:14:18;;;;;;;;;;;;;;;21.62;54.55;101842.25;5061933;28;3003;-66
2022/08/31 01:16:46;;;;;;;;;;;;;;;21.66;54.56;101845.38;5058707;28;2937;-66
2022/08/31 01:19:16;;;;;;;;;;;;;;;21.65;54.56;101835.25;5047168;28;2944;-66
2022/08/31 01:21:46;;;;;;;;;;;;;;;21.63;54.40;101835.13;5051256;28;2769;-65
2022/08/31 01:24:12;;;;;;;;;;;;;;;21.70;54.48;101831.19;5045919;28;2855;-66
2022/08/31 01:26:38;;;;;;;;;;;;;;;21.68;54.26;101833.97;5052949;28;3033;-65
2022/08/31 01:29:05;;;;;;;;;;;;;;;21.59;54.50;101834.88;5041688;28;2922;-66
2022/08/31 01:31:36;;;;;;;;;;;;;;;21.64;54.44;101838.75;5052489;28;2922;-66
2022/08/31 01:34:03;;;;;;;;;;;;;;;21.65;54.54;101841.00;5056189;28;2932;-65
2022/08/31 01:36:29;;;;;;;;;;;;;;;21.67;54.14;101837.47;5059038;28;2822;-65
2022/08/31 01:38:56;;;;;;;;;;;;;;;21.67;54.19;101837.47;5062350;28;2793;-67
2022/08/31 01:41:22;;;;;;;;;;;;;;;21.66;54.24;101836.72;5056129;28;3095;-66
2022/08/31 01:43:49;;;;;;;;;;;;;;;21.61;54.54;101846.53;5052860;28;3089;-65
2022/08/31 01:46:15;;;;;;;;;;;;;;;21.65;54.25;101846.78;5053129;28;2841;-65
2022/08/31 01:48:42;;;;;;;;;;;;;;;21.65;54.32;101851.78;5058203;28;2865;-67
2022/08/31 01:51:08;;;;;;;;;;;;;;;21.64;54.21;101845.25;5058644;28;2927;-65
2022/08/31 01:53:38;;;;;;;;;;;;;;;21.64;54.19;101856.78;5073106;28;2983;-65
2022/08/31 01:56:11;;;;;;;;;;;;;;;21.60;54.25;101844.28;5069504;28;2947;-65
2022/08/31 01:58:38;;;;;;;;;;;;;;;21.61;54.42;101846.53;5056960;28;2884;-66
2022/08/31 02:01:12;;;;;;;;;;;;;;;21.58;54.56;101853.56;5057714;28;2956;-66
2022/08/31 02:03:58;;;;;;;;;;;;;;;21.61;54.38;101843.66;5044670;28;3081;-66
2022/08/31 02:06:25;;;;;;;;;;;;;;;21.54;54.63;101836.03;5054945;28;2984;-66
2022/08/31 02:08:51;;;;;;;;;;;;;;;21.56;54.37;101839.03;5058132;28;2848;-67
2022/08/31 02:11:18;;;;;;;;;;;;;;;21.51;54.68;101843.09;5061334;28;2948;-66
2022/08/31 02:13:44;;;;;;;;;;;;;;;21.47;54.52;101839.97;5070249;28;3268;-65
2022/08/31 02:16:13;;;;;;;;;;;;;;;21.49;54.60;101837.19;5051307;28;2956;-66
2022/08/31 02:18:40;;;;;;;;;;;;;;;21.51;54.52;101831.56;5054484;28;3045;-66
2022/08/31 02:21:06;;;;;;;;;;;;;;;21.53;54.64;101828.78;5056693;28;2949;-66
2022/08/31 02:23:33;;;;;;;;;;;;;;;21.49;54.52;101831.44;5054319;28;2853;-66
2022/08/31 02:25:59;;;;;;;;;;;;;;;21.54;54.38;101825.25;5058015;28;2602;-65
2022/08/31 02:28:25;;;;;;;;;;;;;;;21.52;54.56;101828.03;5057893;28;2932;-65
2022/08/31 02:30:53;;;;;;;;;;;;;;;21.57;54.24;101834.78;5055533;28;3246;-65
2022/08/31 02:33:20;;;;;;;;;;;;;;;21.49;54.82;101834.31;5056620;28;2625;-66
2022/08/31 02:35:46;;;;;;;;;;;;;;;21.50;54.66;101830.03;5055336;28;3423;-66
2022/08/31 02:38:18;;;;;;;;;;;;;;;21.55;54.68;101831.78;5056556;28;3000;-65
2022/08/31 02:40:47;;;;;;;;;;;;;;;21.52;54.57;101828.03;5053773;28;2912;-67
2022/08/31 02:43:15;;;;;;;;;;;;;;;21.51;54.55;101825.78;5057612;28;3270;-67
2022/08/31 02:45:52;;;;;;;;;;;;;;;21.53;54.59;101820.13;5052984;28;2964;-67
2022/08/31 02:48:23;;;;;;;;;;;;;;;21.55;54.83;101826.00;5054275;28;3384;-66
2022/08/31 02:50:50;;;;;;;;;;;;;;;21.50;54.76;101824.28;5060165;28;2806;-66
2022/08/31 02:53:17;;;;;;;;;;;;;;;21.47;54.88;101814.03;5056773;28;2726;-66
2022/08/31 02:55:44;;;;;;;;;;;;;;;21.50;54.79;101816.38;5055748;28;2900;-66
2022/08/31 02:58:10;;;;;;;;;;;;;;;21.56;54.89;101821.75;5056723;28;2888;-66
2022/08/31 03:00:37;;;;;;;;;;;;;;;21.51;55.29;101822.91;5053337;28;2755;-65
2022/08/31 03:03:04;;;;;;;;;;;;;;;21.48;55.26;101824.16;5059632;28;3025;-66
2022/08/31 03:05:30;;;;;;;;;;;;;;;21.30;55.64;101818.84;5061926;28;2885;-66
2022/08/31 03:07:57;;;;;;;;;;;;;;;21.37;55.32;101816.28;5052882;28;3022;-66
2022/08/31 03:10:23;;;;;;;;;;;;;;;21.39;55.46;101822.91;5050177;28;3431;-66
2022/08/31 03:12:50;;;;;;;;;;;;;;;21.41;55.51;101811.53;5072331;28;3297;-67
2022/08/31 03:15:16;;;;;;;;;;;;;;;21.38;55.77;101806.28;5072271;28;2656;-67
2022/08/31 03:17:44;;;;;;;;;;;;;;;21.40;55.66;101797.75;5058715;28;3085;-67
2022/08/31 03:20:10;;;;;;;;;;;;;;;21.40;55.97;101798.53;5055789;28;2791;-68
2022/08/31 03:22:37;;;;;;;;;;;;;;;21.44;55.71;101800.88;5055611;28;2912;-68
2022/08/31 03:25:03;;;;;;;;;;;;;;;21.41;55.55;101802.16;5060780;28;2964;-67
2022/08/31 03:27:30;;;;;;;;;;;;;;;21.47;55.68;101808.25;5055460;28;2984;-67
2022/08/31 03:29:56;;;;;;;;;;;;;;;21.44;55.61;101795.09;5061104;28;2892;-67
2022/08/31 03:32:26;;;;;;;;;;;;;;;21.40;55.42;101804.28;5055360;28;3007;-67
2022/08/31 03:34:54;;;;;;;;;;;;;;;21.43;55.45;101808.03;5055280;28;3007;-68
2022/08/31 03:37:20;;;;;;;;;;;;;;;21.46;55.24;101807.53;5042050;28;2976;-67
2022/08/31 03:39:48;;;;;;;;;;;;;;;21.45;55.59;101811.03;5068906;28;3377;-66
2022/08/31 03:42:15;;;;;;;;;;;;;;;21.47;55.35;101814.03;5056177;28;3396;-67
2022/08/31 03:44:41;;;;;;;;;;;;;;;21.43;55.59;101814.53;5043927;28;2946;-67
2022/08/31 03:47:16;;;;;;;;;;;;;;;21.44;55.29;101821.03;5056782;28;3366;-67
2022/08/31 03:49:43;;;;;;;;;;;;;;;21.45;55.29;101820.41;5060266;28;2972;-67
2022/08/31 03:52:20;;;;;;;;;;;;;;;21.40;55.51;101820.81;5055343;28;2962;-68
2022/08/31 03:54:54;;;;;;;;;;;;;;;21.41;55.25;101813.69;5056607;28;2944;-67
2022/08/31 03:57:21;;;;;;;;;;;;;;;21.40;55.16;101824.47;5054855;28;2849;-67
2022/08/31 03:59:50;;;;;;;;;;;;;;;21.34;55.35;101830.56;5068878;28;3285;-67
2022/08/31 04:02:17;;;;;;;;;;;;;;;21.41;55.38;101833.84;5051826;28;2897;-67
2022/08/31 04:05:07;;;;;;;;;;;;;;;21.42;55.28;101832.47;5056214;28;2996;-67
2022/08/31 04:07:52;;;;;;;;;;;;;;;21.33;55.38;101837.00;5057011;28;2851;-66
2022/08/31 04:10:41;;;;;;;;;;;;;;;21.38;55.33;101832.22;5052916;28;2988;-66
2022/08/31 04:13:25;;;;;;;;;;;;;;;21.36;55.14;101849.38;5054135;28;2940;-66
2022/08/31 04:16:34;;;;;;;;;;;;;;;21.34;55.33;101841.34;5054616;28;2940;-66
2022/08/31 04:19:19;;;;;;;;;;;;;;;21.34;55.06;101839.22;5055115;28;3025;-67
2022/08/31 04:21:56;;;;;;;;;;;;;;;21.33;55.10;101840.63;5063291;28;1922;-66
2022/08/31 04:24:22;;;;;;;;;;;;;;;21.34;55.10;101850.75;5056346;28;2934;-66
2022/08/31 04:26:49;;;;;;;;;;;;;;;21.32;55.12;101844.84;5070821;28;1763;-67
2022/08/31 04:29:16;;;;;;;;;;;;;;;21.30;55.13;101849.75;5056680;28;2849;-67
2022/08/31 04:31:43;;;;;;;;;;;;;;;21.26;55.39;101855.31;5050671;28;3041;-68
2022/08/31 04:34:10;;;;;;;;;;;;;;;21.28;55.16;101856.16;5054787;28;2862;-67
2022/08/31 04:36:36;;;;;;;;;;;;;;;21.29;55.13;101862.69;5052996;28;2648;-68
2022/08/31 04:39:03;;;;;;;;;;;;;;;21.29;55.05;101862.69;5062650;28;2827;-67
2022/08/31 04:41:30;;;;;;;;;;;;;;;21.30;54.87;101864.16;5053923;28;2893;-67
2022/08/31 04:43:57;;;;;;;;;;;;;;;21.30;54.98;101870.69;5056168;28;2973;-67
2022/08/31 04:46:24;;;;;;;;;;;;;;;21.30;55.01;101869.94;5071194;28;3436;-67
2022/08/31 04:48:51;;;;;;;;;;;;;;;21.28;55.06;101872.69;5056933;28;3052;-67
2022/08/31 04:51:19;;;;;;;;;;;;;;;21.26;54.98;101855.31;5056085;28;3051;-67
2022/08/31 04:53:45;;;;;;;;;;;;;;;21.25;55.31;101863.19;5064857;28;2751;-66
2022/08/31 04:56:13;;;;;;;;;;;;;;;21.28;55.06;101855.41;5051799;28;3059;-66
2022/08/31 04:58:41;;;;;;;;;;;;;;;21.27;55.34;101860.41;5055292;28;2984;-66
2022/08/31 05:01:08;;;;;;;;;;;;;;;21.28;55.09;101858.28;5059006;28;2975;-66
2022/08/31 05:03:55;;;;;;;;;;;;;;;21.26;55.27;101869.72;5059711;28;1658;-66
2022/08/31 05:06:25;;;;;;;;;;;;;;;21.25;55.34;101862.44;5052168;28;2988;-66
2022/08/31 05:08:53;;;;;;;;;;;;;;;21.28;54.96;101864.81;5055576;28;2991;-67
2022/08/31 05:11:20;;;;;;;;;;;;;;;21.32;55.09;101856.38;5059647;28;2944;-66
2022/08/31 05:13:51;;;;;;;;;;;;;;;21.26;55.40;101861.81;5057688;28;3027;-67
2022/08/31 05:16:18;;;;;;;;;;;;;;;21.28;55.36;101864.81;5057446;28;2900;-67
2022/08/31 05:18:45;;;;;;;;;;;;;;;21.37;55.00;101868.16;5064679;28;2944;-65
2022/08/31 05:21:15;;;;;;;;;;;;;;;21.26;55.91;101870.44;5070372;28;3080;-59
2022/08/31 05:23:42;;;;;;;;;;;;;;;21.37;55.76;101868.16;5072670;28;2660;-58
2022/08/31 05:26:09;;;;;;;;;;;;;;;21.45;55.48;101868.66;5041131;28;2969;-59
2022/08/31 05:28:35;;;;;;;;;;;;;;;21.48;55.42;101873.16;5050653;28;2968;-58
2022/08/31 05:31:02;;;;;;;;;;;;;;;21.49;55.38;101866.03;5054053;28;3077;-58
2022/08/31 05:33:34;;;;;;;;;;;;;;;21.43;55.74;101869.28;5061185;28;2951;-58
2022/08/31 05:36:01;;;;;;;;;;;;;;;21.43;55.35;101880.06;5068856;28;1753;-58
2022/08/31 05:38:27;;;;;;;;;;;;;;;21.44;55.30;101878.69;5072142;28;2924;-57
2022/08/31 05:40:54;;;;;;;;;;;;;;;21.37;55.55;101880.41;5058686;28;2873;-56
2022/08/31 05:43:21;;;;;;;;;;;;;;;21.38;55.48;101875.44;5060274;28;2756;-57
2022/08/31 05:45:47;;;;;;;;;;;;;;;21.34;55.42;101873.78;5058659;28;2936;-57
2022/08/31 05:48:14;;;;;;;;;;;;;;;21.42;55.11;101884.34;5056631;28;3388;-57
2022/08/31 05:50:40;;;;;;;;;;;;;;;21.39;55.17;101880.53;5059917;28;1696;-58
2022/08/31 05:53:07;;;;;;;;;;;;;;;21.41;54.98;101882.84;5055234;28;1789;-58
2022/08/31 05:55:33;;;;;;;;;;;;;;;21.32;55.58;101878.69;5053017;28;3223;-57
2022/08/31 05:57:59;;;;;;;;;;;;;;;21.23;55.63;101876.72;5058558;28;1726;-58
2022/08/31 06:00:26;;;;;;;;;;;;;;;21.19;56.57;101894.53;5058521;28;2783;-57
2022/08/31 06:03:08;;;;;;;;;;;;;;;21.24;56.69;101884.72;5072297;28;2975;-58
2022/08/31 06:05:34;;;;;;;;;;;;;;;21.21;56.59;101886.00;5057167;28;2538;-58
2022/08/31 06:08:01;;;;;;;;;;;;;;;21.14;56.25;101895.63;5058750;28;3499;-58
2022/08/31 06:10:31;;;;;;;;;;;;;;;21.11;56.20;101876.75;5059579;28;2727;-58
2022/08/31 06:12:57;;;;;;;;;;;;;;;20.93;56.61;101894.41;5063483;28;2864;-53
2022/08/31 06:15:24;;;;;;;;;;;;;;;20.67;57.51;101898.59;5056935;28;3034;-61
2022/08/31 06:17:50;;;;;;;;;;;;;;;20.64;61.63;101894.84;5054555;28;2983;-60
2022/08/31 06:20:17;;;;;;;;;;;;;;;20.56;58.18;101891.44;5065540;28;3593;-59
2022/08/31 06:22:45;;;;;;;;;;;;;;;20.71;58.98;101899.59;5054016;28;2987;-68
2022/08/31 06:25:18;;;;;;;;;;;;;;;20.86;58.59;101891.81;5061514;28;2972;-60
2022/08/31 06:27:47;;;;;;;;;;;;;;;21.04;58.02;101895.03;5066602;28;3907;-60
2022/08/31 06:30:18;;;;;;;;;;;;;;;21.07;57.28;101896.66;5054629;28;2933;-63
2022/08/31 06:32:45;;;;;;;;;;;;;;;20.80;57.23;101897.97;5053546;28;3198;-70
2022/08/31 06:35:11;;;;;;;;;;;;;;;20.89;57.60;101908.59;5055586;28;2975;-66
2022/08/31 06:38:04;;;;;;;;;;;;;;;20.88;57.17;101903.44;5052151;28;2961;-65
2022/08/31 06:40:46;;;;;;;;;;;;;;;21.00;56.99;101900.56;5056679;28;3149;-67
2022/08/31 06:43:43;;;;;;;;;;;;;;;20.92;56.57;101901.56;5009784;28;3092;-67
2022/08/31 06:46:47;;;;;;;;;;;;;;;20.73;57.24;101896.09;5001081;28;3438;-72
2022/08/31 06:49:18;;;;;;;;;;;;;;;21.15;56.76;101900.03;5005384;28;2955;-71
2022/08/31 06:51:44;;;;;;;;;;;;;;;21.31;56.25;101895.22;5021276;28;2827;-69
2022/08/31 06:54:11;;;;;;;;;;;;;;;21.26;56.29;101905.03;5059478;28;1820;-72
2022/08/31 06:57:14;;;;;;;;;;;;;;;21.29;56.48;101898.00;5057266;28;2968;-70
2022/08/31 06:59:58;;;;;;;;;;;;;;;20.90;56.81;101897.81;5059521;28;3055;-72
2022/08/31 07:02:33;;;;;;;;;;;;;;;20.70;57.37;101900.19;5053650;28;2976;-80
2022/08/31 07:04:59;;;;;;;;;;;;;;;20.29;57.97;101907.03;5057846;28;2924;-72
2022/08/31 07:07:26;;;;;;;;;;;;;;;20.71;57.59;101916.84;5055743;28;2890;-72
2022/08/31 07:09:52;;;;;;;;;;;;;;;21.09;57.12;101909.03;5070670;28;2944;-72
2022/08/31 07:12:19;;;;;;;;;;;;;;;21.16;56.52;101906.53;5056844;28;3051;-69
2022/08/31 07:14:47;;;;;;;;;;;;;;;21.39;57.42;101912.25;5056700;28;3033;-65
2022/08/31 07:17:20;;;;;;;;;;;;;;;22.03;55.75;101913.00;5054890;28;3343;-69
2022/08/31 07:19:47;;;;;;;;;;;;;;;22.01;54.85;101910.75;5058284;28;2949;-69
2022/08/31 07:22:15;;;;;;;;;;;;;;;21.65;55.40;101915.94;5053704;28;2944;-70
2022/08/31 07:24:44;;;;;;;;;;;;;;;21.44;56.03;101908.25;5066848;28;2837;-69
2022/08/31 07:27:11;;;;;;;;;;;;;;;21.59;55.98;101904.06;5055973;28;2952;-69
2022/08/31 07:29:43;;;;;;;;;;;;;;;21.85;55.88;101898.31;5058907;28;2948;-71
2022/08/31 07:32:12;;;;;;;;;;;;;;;21.80;55.55;101903.09;5065023;28;2958;-65
2022/08/31 07:34:39;;;;;;;;;;;;;;;21.87;55.41;101918.59;5068498;28;2993;-64
2022/08/31 07:42:55;;;;;;;;;;;;;;;21.59;55.36;101924.25;5061904;28;2846;-66
2022/08/31 07:45:23;;;;;;;;;;;;;;;21.57;55.51;101921.25;5037419;28;3250;-68
2022/08/31 07:47:55;;;;;;;;;;;;;;;21.60;55.66;101937.28;5061409;28;3023;-67
2022/08/31 07:50:26;;;;;;;;;;;;;;;21.56;55.89;101931.28;5062038;28;1785;-68
2022/08/31 07:52:59;;;;;;;;;;;;;;;21.62;55.74;101931.63;5057539;28;2970;-67
2022/08/31 07:55:44;;;;;;;;;;;;;;;21.62;55.82;101939.50;5057160;28;3004;-67
2022/08/31 07:58:30;;;;;;;;;;;;;;;21.62;56.04;101928.72;5055662;28;2830;-66
2022/08/31 08:01:01;;;;;;;;;;;;;;;21.62;56.20;101928.00;5052702;28;2947;-66
2022/08/31 08:03:28;;;;;;;;;;;;;;;21.63;56.21;101932.38;5055001;28;2943;-65
2022/08/31 08:06:15;;;;;;;;;;;;;;;21.60;56.39;101925.75;5008844;28;3052;-67
2022/08/31 08:09:06;;;;;;;;;;;;;;;21.54;55.98;101934.03;5053611;28;3019;-61
2022/08/31 08:11:56;;;;;;;;;;;;;;;21.58;55.80;101937.16;5052175;28;2936;-61
2022/08/31 08:14:38;;;;;;;;;;;;;;;21.66;55.45;101943.38;5057141;28;2933;-58
2022/08/31 08:17:36;;;;;;;;;;;;;;;22.12;55.66;101938.03;5030092;28;3033;-67
2022/08/31 08:20:06;;;;;;;;;;;;;;;21.90;54.95;101940.44;5058411;28;3581;-72
2022/08/31 08:22:41;;;;;;;;;;;;;;;21.72;55.23;101932.22;5068235;28;2635;-67
2022/08/31 08:25:29;;;;;;;;;;;;;;;21.95;54.93;101928.47;5052016;28;3634;-70
2022/08/31 08:28:16;;;;;;;;;;;;;;;22.26;53.52;101935.22;5056633;28;2917;-70
2022/08/31 08:31:03;;;;;;;;;;;;;;;22.41;52.58;101931.00;5060744;28;2873;-70
2022/08/31 08:33:30;;;;;;;;;;;;;;;22.46;52.48;101936.34;5058210;28;2953;-77
2022/08/31 08:35:59;;;;;;;;;;;;;;;22.48;52.51;101927.81;5062051;28;3016;-72
2022/08/31 08:38:29;;;;;;;;;;;;;;;22.53;52.61;101932.41;5057466;28;3008;-73
2022/08/31 08:40:58;;;;;;;;;;;;;;;22.56;52.93;101939.81;5062695;28;2999;-71
2022/08/31 08:43:31;;;;;;;;;;;;;;;22.57;52.83;101946.31;5058934;28;2876;-67
2022/08/31 08:45:58;;;;;;;;;;;;;;;22.61;53.27;101934.22;5054550;28;3122;-66
2022/08/31 08:48:45;;;;;;;;;;;;;;;22.63;53.10;101937.22;5060790;28;2841;-66
2022/08/31 08:51:23;;;;;;;;;;;;;;;22.67;53.26;101943.22;5060370;28;2870;-67
2022/08/31 08:53:57;;;;;;;;;;;;;;;22.72;52.97;101939.16;5046079;28;3138;-68
2022/08/31 08:56:28;;;;;;;;;;;;;;;22.72;52.91;101947.81;5059573;28;2913;-62
2022/08/31 08:59:01;;;;;;;;;;;;;;;22.71;53.07;101943.47;5044351;28;1880;-68
2022/08/31 09:01:34;;;;;;;;;;;;;;;22.75;52.94;101943.69;5062881;28;3007;-62
2022/08/31 09:04:05;;;;;;;;;;;;;;;22.79;53.15;101943.88;5074295;28;1965;-66
2022/08/31 09:07:17;;;;;;;;;;;;;;;22.84;52.77;101936.94;5049152;28;2651;-66
2022/08/31 09:09:46;;;;;;;;;;;;;;;22.77;52.69;101941.66;5063082;28;2943;-69
2022/08/31 09:12:32;;;;;;;;;;;;;;;22.69;53.19;101943.34;5051321;28;1595;-66
2022/08/31 09:15:05;;;;;;;;;;;;;;;22.76;53.20;101939.38;5060336;28;3303;-67
2022/08/31 09:17:51;;;;;;;;;;;;;;;22.83;53.16;101944.09;5058231;28;3126;-67
2022/08/31 09:20:26;;;;;;;;;;;;;;;22.86;52.98;101942.84;5061407;28;3504;-66
2022/08/31 09:22:54;;;;;;;;;;;;;;;22.90;52.84;101940.13;5059704;28;3087;-66
2022/08/31 09:25:31;;;;;;;;;;;;;;;22.91;52.71;101938.03;5063076;28;2905;-66
2022/08/31 09:28:06;;;;;;;;;;;;;;;22.92;52.60;101934.47;5048907;28;2890;-65
2022/08/31 09:30:34;;;;;;;;;;;;;;;22.85;53.10;101941.31;5060723;28;1797;-67
2022/08/31 09:33:00;;;;;;;;;;;;;;;22.89;52.82;101929.25;5062452;28;1748;-66
2022/08/31 09:35:39;;;;;;;;;;;;;;;22.89;53.09;101932.13;5060541;28;1612;-67
2022/08/31 09:38:10;;;;;;;;;;;;;;;22.93;52.87;101929.44;5056756;28;3063;-66
2022/08/31 09:40:37;;;;;;;;;;;;;;;22.85;52.84;101937.69;5058832;28;2970;-63
2022/08/31 09:43:11;;;;;;;;;;;;;;;22.85;53.04;101938.44;5060595;28;1968;-64
2022/08/31 09:45:49;;;;;;;;;;;;;;;22.90;53.23;101940.13;5060933;28;1764;-63
2022/08/31 09:48:15;;;;;;;;;;;;;;;22.94;52.83;101940.38;5067571;28;3140;-64
2022/08/31 09:50:45;;;;;;;;;;;;;;;22.96;52.99;101931.81;5062557;28;1729;-64
2022/08/31 09:56:04;;;;;;;;;;;;;;;22.91;53.39;101935.88;5059052;28;2965;-63
2022/08/31 09:58:33;;;;;;;;;;;;;;;22.96;53.17;101928.91;5062734;28;2988;-65
2022/08/31 10:01:11;;;;;;;;;;;;;;;23.06;52.99;101925.84;5055687;28;2837;-59
2022/08/31 10:03:43;;;;;;;;;;;;;;;23.08;52.63;101928.09;5061510;28;2746;-59
2022/08/31 10:06:42;;;;;;;;;;;;;;;23.11;52.59;101926.78;5059631;28;2058;-59
2022/08/31 10:09:18;;;;;;;;;;;;;;;23.11;52.73;101927.56;5061552;28;2597;-59
2022/08/31 10:11:46;;;;;;;;;;;;;;;23.11;52.55;101938.34;5059709;28;3068;-58
2022/08/31 10:14:32;;;;;;;;;;;;;;;23.09;52.58;101935.34;5061133;28;1535;-58
2022/08/31 10:17:09;;;;;;;;;;;;;;;22.93;52.90;101938.09;5055806;28;1567;-60
2022/08/31 10:19:41;;;;;;;;;;;;;;;22.86;53.24;101931.28;5056855;28;2660;-61
2022/08/31 10:22:17;;;;;;;;;;;;;;;22.91;53.46;101927.22;5064919;28;1914;-62
2022/08/31 10:24:45;;;;;;;;;;;;;;;23.00;53.14;101922.66;5055408;28;2733;-63
2022/08/31 10:27:12;;;;;;;;;;;;;;;22.88;53.60;101922.69;5061745;28;2746;-61
2022/08/31 10:29:48;;;;;;;;;;;;;;;22.89;53.44;101918.44;5052825;28;2641;-62
2022/08/31 10:32:23;;;;;;;;;;;;;;;22.98;53.59;101925.41;5060588;28;2850;-73
2022/08/31 10:35:04;;;;;;;;;;;;;;;22.90;53.02;101925.69;5052702;28;3372;-61
2022/08/31 10:37:35;;;;;;;;;;;;;;;22.80;53.18;101922.28;5048638;28;4792;-61
2022/08/31 10:40:22;;;;;;;;;;;;;;;22.78;53.29;101913.50;5050994;28;4905;-62
2022/08/31 10:42:59;;;;;;;;;;;;;;;22.74;53.22;101916.91;5057280;28;2881;-62
2022/08/31 10:45:26;;;;;;;;;;;;;;;22.73;53.59;101917.59;5058088;28;2833;-61
2022/08/31 10:47:53;;;;;;;;;;;;;;;22.82;53.20;101915.88;5057885;28;3111;-61
2022/08/31 10:50:25;;;;;;;;;;;;;;;22.78;53.11;101913.50;5051909;28;2962;-60
2022/08/31 10:52:56;;;;;;;;;;;;;;;22.79;53.10;101920.78;5047605;28;4653;-62
2022/08/31 10:55:36;;;;;;;;;;;;;;;22.84;52.89;101910.97;5056931;28;2956;-62
2022/08/31 10:58:21;;;;;;;;;;;;;;;22.82;53.29;101913.00;5066341;28;3102;-60
2022/08/31 11:00:50;;;;;;;;;;;;;;;22.88;53.05;101908.25;5062799;28;2834;-60
2022/08/31 11:03:21;;;;;;;;;;;;;;;22.83;53.31;101908.69;5052326;28;4237;-60
2022/08/31 11:05:52;;;;;;;;;;;;;;;22.80;53.33;101911.47;5061121;28;3153;-60
2022/08/31 11:08:28;;;;;;;;;;;;;;;22.77;53.29;101897.59;5057361;28;3498;-60
2022/08/31 11:10:55;;;;;;;;;;;;;;;22.84;53.09;101905.19;5054374;28;3132;-59
2022/08/31 11:13:35;;;;;;;;;;;;;;;22.88;53.34;101899.59;5053312;28;3115;-58
2022/08/31 11:16:04;;;;;;;;;;;;;;;22.82;52.97;101892.78;5051176;28;3127;-59
2022/08/31 11:18:39;;;;;;;;;;;;;;;22.78;53.02;101884.63;5053358;28;3562;-59
2022/08/31 11:21:12;;;;;;;;;;;;;;;22.79;53.56;101886.13;5055309;28;3189;-60
2022/08/31 11:23:53;;;;;;;;;;;;;;;22.84;53.29;101890.75;5049967;28;4219;-60
2022/08/31 11:26:29;;;;;;;;;;;;;;;22.82;53.08;101890.63;5051282;28;3127;-60
2022/08/31 11:29:08;;;;;;;;;;;;;;;22.82;53.22;101884.84;5054497;28;3218;-57
2022/08/31 11:31:35;;;;;;;;;;;;;;;22.63;51.72;101886.03;5049582;28;4607;-59
2022/08/31 11:34:06;;;;;;;;;;;;;;;22.69;52.60;101885.59;5048385;28;4611;-57
2022/08/31 11:36:41;;;;;;;;;;;;;;;22.75;50.69;101895.34;5048907;28;3123;-55
2022/08/31 11:39:08;;;;;;;;;;;;;;;22.83;49.94;101886.34;5050593;28;4390;-55
2022/08/31 11:41:47;;;;;;;;;;;;;;;22.82;50.23;101884.84;5057013;28;3090;-58
2022/08/31 11:44:29;;;;;;;;;;;;;;;22.77;49.22;101886.03;5050820;28;3013;-55
2022/08/31 11:47:08;;;;;;;;;;;;;;;22.72;49.72;101878.53;5048273;28;2974;-52
2022/08/31 11:49:38;;;;;;;;;;;;;;;22.71;50.61;101879.94;5048406;28;3079;-64
2022/08/31 11:52:09;;;;;;;;;;;;;;;22.68;49.71;101875.44;5048561;28;4577;-71
2022/08/31 11:54:41;;;;;;;;;;;;;;;22.74;50.89;101872.88;5053962;28;2888;-69
2022/08/31 11:57:08;;;;;;;;;;;;;;;22.75;50.99;101885.94;5054306;28;2916;-68
2022/08/31 11:59:36;;;;;;;;;;;;;;;22.73;51.24;101877.91;5051263;28;4053;-65
2022/08/31 12:02:18;;;;;;;;;;;;;;;22.68;49.73;101875.44;5056885;28;3009;-71
2022/08/31 12:04:47;;;;;;;;;;;;;;;22.68;50.32;101870.41;5058111;28;3631;-68
2022/08/31 12:07:32;;;;;;;;;;;;;;;22.61;50.46;101862.81;5056927;28;2912;-71
2022/08/31 12:10:13;;;;;;;;;;;;;;;22.59;49.88;101863.47;5056408;28;2874;-72
2022/08/31 12:12:49;;;;;;;;;;;;;;;22.55;49.72;101865.38;5060496;28;2880;-75
2022/08/31 12:15:27;;;;;;;;;;;;;;;22.50;48.37;101861.53;5057346;28;2895;-70
2022/08/31 12:17:56;;;;;;;;;;;;;;;22.46;47.84;101861.31;5057008;28;2702;-71
2022/08/31 12:23:36;;;;;;;;;;;;;;;22.54;47.29;101850.22;5045232;28;4592;-69
2022/08/31 12:26:14;;;;;;;;;;;;;;;22.51;47.60;101845.69;5053931;28;2936;-69
2022/08/31 12:28:43;;;;;;;;;;;;;;;22.56;47.26;101855.31;5056919;28;2947;-68
2022/08/31 12:31:11;;;;;;;;;;;;;;;22.51;46.67;101850.72;5049492;28;2896;-72
2022/08/31 12:33:39;;;;;;;;;;;;;;;22.53;47.66;101854.47;5051783;28;3020;-71
2022/08/31 12:36:12;;;;;;;;;;;;;;;22.47;46.45;101848.38;5042350;28;4004;-69
2022/08/31 12:38:39;;;;;;;;;;;;;;;22.52;47.46;101847.22;5051070;28;2799;-64
2022/08/31 12:41:05;;;;;;;;;;;;;;;23.17;47.23;101849.09;5048056;28;4537;-69
2022/08/31 12:43:42;;;;;;;;;;;;;;;23.57;46.82;101856.16;5045946;28;4595;-70
2022/08/31 12:46:28;;;;;;;;;;;;;;;23.88;46.35;101848.22;5044266;28;3000;-69
2022/08/31 12:49:04;;;;;;;;;;;;;;;23.67;47.57;101849.38;5040092;28;4341;-71
2022/08/31 12:51:49;;;;;;;;;;;;;;;23.59;48.35;101846.81;5051134;28;3083;-73
2022/08/31 12:54:18;;;;;;;;;;;;;;;23.63;48.40;101844.13;5046235;28;3235;-73
2022/08/31 12:56:57;;;;;;;;;;;;;;;23.65;48.66;101844.22;5056210;28;2951;-69
2022/08/31 12:59:31;;;;;;;;;;;;;;;23.66;48.76;101844.97;5055147;28;3123;-69
2022/08/31 13:02:19;;;;;;;;;;;;;;;23.67;49.08;101846.47;5047673;28;4607;-76
2022/08/31 13:04:46;;;;;;;;;;;;;;;23.64;49.44;101842.75;5048446;28;4711;-73
2022/08/31 13:07:19;;;;;;;;;;;;;;;23.58;49.62;101845.34;5043323;28;4289;-67
2022/08/31 13:09:45;;;;;;;;;;;;;;;23.58;50.03;101851.13;5036683;28;4585;-69
2022/08/31 13:12:20;;;;;;;;;;;;;;;23.62;49.80;101839.75;5047087;28;4509;-69
2022/08/31 13:14:46;;;;;;;;;;;;;;;23.60;50.07;101839.66;5050057;28;2999;-67
2022/08/31 13:17:16;;;;;;;;;;;;;;;23.61;50.08;101823.78;5050297;28;3226;-68
2022/08/31 13:19:44;;;;;;;;;;;;;;;23.62;50.52;101822.41;5047822;28;2936;-71
2022/08/31 13:22:15;;;;;;;;;;;;;;;23.58;50.41;101822.22;5052928;28;2869;-74
2022/08/31 13:24:43;;;;;;;;;;;;;;;23.77;50.28;101821.69;5051859;28;4591;-76
2022/08/31 13:27:19;;;;;;;;;;;;;;;24.00;50.00;101822.75;5053252;28;3921;-69